createdAt,value
2019-03-09T00:02:58.234Z,4.63
2019-03-09T00:08:01.134Z,4.10
2019-03-09T00:13:03.940Z,4.00
2019-03-09T00:18:06.689Z,4.30
2019-03-09T00:23:26.880Z,3.70
2019-03-09T00:28:32.418Z,3.80
2019-03-09T00:33:35.274Z,3.27
2019-03-09T00:38:38.019Z,2.77
2019-03-09T00:43:40.839Z,2.97
2019-03-09T00:48:43.628Z,2.50
2019-03-09T00:53:46.391Z,2.73
2019-03-09T00:58:49.434Z,2.70
2019-03-09T01:03:52.333Z,3.70
2019-03-09T01:08:55.403Z,2.93
2019-03-09T01:13:58.431Z,3.23
2019-03-09T01:19:01.536Z,2.73
2019-03-09T01:24:04.597Z,3.67
2019-03-09T01:29:07.435Z,2.90
2019-03-09T01:34:10.152Z,2.33
2019-03-09T01:39:12.852Z,2.80
2019-03-09T01:44:15.558Z,2.80
2019-03-09T01:49:18.256Z,2.67
2019-03-09T01:54:21.140Z,2.73
2019-03-09T01:59:23.891Z,2.73
2019-03-09T02:04:26.653Z,2.27
2019-03-09T02:09:29.419Z,2.40
2019-03-09T02:14:32.130Z,2.70
2019-03-09T02:19:34.881Z,2.80
2019-03-09T02:24:37.710Z,2.47
2019-03-09T02:29:40.453Z,3.17
2019-03-09T02:34:43.254Z,2.50
2019-03-09T02:39:51.700Z,2.33
2019-03-09T02:44:54.568Z,2.00
2019-03-09T02:49:57.461Z,2.50
2019-03-09T02:55:00.532Z,2.73
2019-03-09T03:00:07.086Z,2.00
2019-03-09T03:05:10.154Z,2.40
2019-03-09T03:10:13.058Z,2.40
2019-03-09T03:15:31.590Z,2.33
2019-03-09T03:20:34.336Z,2.30
2019-03-09T03:25:37.071Z,1.93
2019-03-09T03:30:39.849Z,2.40
2019-03-09T03:35:42.695Z,1.80
2019-03-09T03:40:45.470Z,2.60
2019-03-09T03:45:48.249Z,2.30
2019-03-09T03:50:51.014Z,2.60
2019-03-09T03:55:53.822Z,2.50
2019-03-09T04:00:56.500Z,2.30
2019-03-09T04:05:59.202Z,2.60
2019-03-09T04:11:02.007Z,2.10
2019-03-09T04:16:04.722Z,2.70
2019-03-09T04:21:07.547Z,2.47
2019-03-09T04:26:11.403Z,2.60
2019-03-09T04:31:14.126Z,2.80
2019-03-09T04:36:16.840Z,2.90
2019-03-09T04:41:19.550Z,3.13
2019-03-09T04:46:22.318Z,3.63
2019-03-09T04:51:25.025Z,3.50
2019-03-09T04:56:27.807Z,3.40
2019-03-09T05:01:31.491Z,3.37
2019-03-09T05:06:34.290Z,4.03
2019-03-09T05:11:36.997Z,3.60
2019-03-09T05:16:39.749Z,4.30
2019-03-09T05:21:42.484Z,4.43
2019-03-09T05:26:45.254Z,3.50
2019-03-09T05:31:48.049Z,3.53
2019-03-09T05:36:50.818Z,3.70
2019-03-09T05:41:53.525Z,3.53
2019-03-09T05:46:57.263Z,3.30
2019-03-09T05:52:31.829Z,3.00
2019-03-09T05:57:34.678Z,2.60
2019-03-09T06:02:37.401Z,3.40
2019-03-09T06:07:40.113Z,3.00
2019-03-09T06:12:42.836Z,3.10
2019-03-09T06:17:45.542Z,2.90
2019-03-09T06:22:48.223Z,3.03
2019-03-09T06:27:50.939Z,2.47
2019-03-09T06:33:20.403Z,3.17
2019-03-09T06:38:54.239Z,2.40
2019-03-09T06:43:56.932Z,2.90
2019-03-09T06:48:59.675Z,2.63
2019-03-09T06:54:02.403Z,3.37
2019-03-09T06:59:05.315Z,2.80
2019-03-09T07:04:08.222Z,3.03
2019-03-09T07:09:10.912Z,2.60
2019-03-09T07:15:19.369Z,2.80
2019-03-09T07:20:22.330Z,2.20
2019-03-09T07:25:25.095Z,2.50
2019-03-09T07:30:27.987Z,2.20
2019-03-09T07:35:30.722Z,2.47
2019-03-09T07:40:33.440Z,2.60
2019-03-09T07:45:36.977Z,2.63
2019-03-09T07:50:39.685Z,2.30
2019-03-09T07:55:42.399Z,2.47
2019-03-09T08:00:50.670Z,3.60
2019-03-09T08:05:53.379Z,2.83
2019-03-09T08:10:56.086Z,2.80
2019-03-09T08:15:58.782Z,2.40
2019-03-09T08:21:01.497Z,3.03
2019-03-09T08:26:04.211Z,2.60
2019-03-09T08:31:06.909Z,2.03
2019-03-09T08:36:09.633Z,2.40
2019-03-09T08:41:12.431Z,2.00
2019-03-09T08:46:15.126Z,1.90
2019-03-09T08:51:17.863Z,1.93
2019-03-09T08:56:20.559Z,1.67
2019-03-09T09:01:23.257Z,2.40
2019-03-09T09:06:25.937Z,1.87
2019-03-09T09:11:28.635Z,1.70
2019-03-09T09:16:31.337Z,1.53
2019-03-09T09:21:34.050Z,1.60
2019-03-09T09:26:36.742Z,2.00
2019-03-09T09:31:39.446Z,1.80
2019-03-09T09:36:42.205Z,2.10
2019-03-09T09:41:44.903Z,2.20
2019-03-09T09:46:47.612Z,2.00
2019-03-09T09:51:50.319Z,2.87
2019-03-09T09:56:53.027Z,1.90
2019-03-09T10:01:55.725Z,1.90
2019-03-09T10:06:58.442Z,2.30
2019-03-09T10:12:01.145Z,2.00
2019-03-09T10:17:03.885Z,2.53
2019-03-09T10:22:06.672Z,2.90
2019-03-09T10:27:09.388Z,2.63
2019-03-09T10:32:12.094Z,3.37
2019-03-09T10:37:14.789Z,3.30
2019-03-09T10:42:17.542Z,3.00
2019-03-09T10:47:20.243Z,3.07
2019-03-09T10:52:22.950Z,2.90
2019-03-09T10:57:25.670Z,2.43
2019-03-09T11:02:28.365Z,3.80
2019-03-09T11:07:31.074Z,3.90
2019-03-09T11:12:33.778Z,2.90
2019-03-09T11:17:36.516Z,3.17
2019-03-09T11:22:39.240Z,3.13
2019-03-09T11:27:41.955Z,3.23
2019-03-09T11:32:44.656Z,3.27
2019-03-09T11:37:47.777Z,2.90
2019-03-09T11:42:50.502Z,2.83
2019-03-09T11:47:53.308Z,3.17
2019-03-09T11:52:56.023Z,3.00
2019-03-09T11:58:00.374Z,3.87
2019-03-09T12:03:03.067Z,2.67
2019-03-09T12:08:05.774Z,3.40
2019-03-09T12:13:08.487Z,3.53
2019-03-09T12:18:11.185Z,3.50
2019-03-09T12:23:24.863Z,3.60
2019-03-09T12:28:27.569Z,4.23
2019-03-09T12:33:30.260Z,4.60
2019-03-09T12:38:32.965Z,4.73
2019-03-09T12:43:35.702Z,3.97
2019-03-09T12:48:38.510Z,4.30
2019-03-09T12:53:41.213Z,4.23
2019-03-09T12:58:46.164Z,4.20
2019-03-09T13:03:48.644Z,4.33
2019-03-09T13:08:51.381Z,4.30
2019-03-09T13:13:54.135Z,4.57
2019-03-09T13:18:56.840Z,4.50
2019-03-09T13:23:59.536Z,5.40
2019-03-09T13:29:02.273Z,4.87
2019-03-09T13:34:04.990Z,4.50
2019-03-09T13:39:07.961Z,4.60
2019-03-09T13:44:10.644Z,4.63
2019-03-09T13:49:13.336Z,5.67
2019-03-09T13:54:16.081Z,5.37
2019-03-09T13:59:18.793Z,3.47
2019-03-09T14:04:21.511Z,1.73
2019-03-09T14:09:24.232Z,3.30
2019-03-09T14:14:27.022Z,3.50
2019-03-09T14:19:29.731Z,4.27
2019-03-09T14:24:32.446Z,4.83
2019-03-09T14:29:35.183Z,4.03
2019-03-09T14:34:37.908Z,3.27
2019-03-09T14:39:40.734Z,3.70
2019-03-09T14:44:43.557Z,3.43
2019-03-09T14:49:46.291Z,4.30
2019-03-09T14:54:48.980Z,3.87
2019-03-09T14:59:51.681Z,2.77
2019-03-09T15:04:54.384Z,2.20
2019-03-09T15:09:57.079Z,1.80
2019-03-09T15:14:59.814Z,2.33
2019-03-09T15:20:02.633Z,1.43
2019-03-09T15:25:07.040Z,1.60
2019-03-09T15:30:12.204Z,3.20
2019-03-09T15:35:15.246Z,2.30
2019-03-09T15:40:18.112Z,2.60
2019-03-09T15:45:20.809Z,2.60
2019-03-09T15:50:23.515Z,2.13
2019-03-09T15:55:26.231Z,2.17
2019-03-09T16:00:28.970Z,2.10
2019-03-09T16:05:31.681Z,1.90
2019-03-09T16:10:34.408Z,1.70
2019-03-09T16:15:37.097Z,1.50
2019-03-09T16:20:39.785Z,1.87
2019-03-09T16:25:42.495Z,1.67
2019-03-09T16:30:45.212Z,1.83
2019-03-09T16:35:47.968Z,1.37
2019-03-09T16:40:50.687Z,0.90
2019-03-09T16:45:53.422Z,0.77
2019-03-09T16:50:56.166Z,1.00
2019-03-09T16:55:58.896Z,1.07
2019-03-09T17:01:01.605Z,0.80
2019-03-09T17:06:04.292Z,1.10
2019-03-09T17:11:07.001Z,0.90
2019-03-09T17:16:09.752Z,0.60
2019-03-09T17:21:13.881Z,0.70
2019-03-09T17:26:16.675Z,0.70
2019-03-09T17:31:19.389Z,0.77
2019-03-09T17:36:22.092Z,0.73
2019-03-09T17:41:24.834Z,1.20
2019-03-09T17:46:27.561Z,1.50
2019-03-09T17:51:30.276Z,0.90
2019-03-09T17:56:32.995Z,0.70
2019-03-09T18:01:35.714Z,0.90
2019-03-09T18:06:38.467Z,0.70
2019-03-09T18:11:41.228Z,0.80
2019-03-09T18:16:52.535Z,0.53
2019-03-09T18:21:48.562Z,0.90
2019-03-09T18:26:51.248Z,0.50
2019-03-09T18:31:53.961Z,0.60
2019-03-09T18:36:56.689Z,0.70
2019-03-09T18:41:59.425Z,0.60
2019-03-09T18:47:02.146Z,0.60
2019-03-09T18:52:04.884Z,1.00
2019-03-09T18:57:07.585Z,0.60
2019-03-09T19:02:10.286Z,0.90
2019-03-09T19:07:13.014Z,2.00
2019-03-09T19:12:15.743Z,1.17
2019-03-09T19:17:18.448Z,0.90
2019-03-09T19:22:21.175Z,1.00
2019-03-09T19:27:23.896Z,0.50
2019-03-09T19:32:26.642Z,1.00
2019-03-09T19:37:29.363Z,0.70
2019-03-09T19:42:32.322Z,1.00
2019-03-09T19:47:35.082Z,0.73
2019-03-09T19:52:37.982Z,0.87
2019-03-09T19:57:40.709Z,0.90
2019-03-09T20:02:43.516Z,1.47
2019-03-09T20:07:46.231Z,0.93
2019-03-09T20:12:48.937Z,1.07
2019-03-09T20:17:51.668Z,1.47
2019-03-09T20:22:54.386Z,0.90
2019-03-09T20:27:57.085Z,0.80
2019-03-09T20:32:59.871Z,1.10
2019-03-09T20:38:02.991Z,1.10
2019-03-09T20:43:06.444Z,1.00
2019-03-09T20:48:11.118Z,1.23
2019-03-09T20:53:15.622Z,0.90
2019-03-09T20:58:21.254Z,1.40
2019-03-09T21:03:25.296Z,1.03
2019-03-09T21:08:29.780Z,0.80
2019-03-09T21:13:33.690Z,0.70
2019-03-09T21:18:36.743Z,0.93
2019-03-09T21:23:39.478Z,1.63
2019-03-09T21:28:42.251Z,1.00
2019-03-09T21:33:45.062Z,1.00
2019-03-09T21:38:47.894Z,1.03
2019-03-09T21:43:50.826Z,1.20
2019-03-09T21:48:53.653Z,1.13
2019-03-09T21:53:56.598Z,1.23
2019-03-09T21:58:59.396Z,1.07
2019-03-09T22:04:02.263Z,1.00
2019-03-09T22:09:06.014Z,1.60
2019-03-09T22:14:08.736Z,1.93
2019-03-09T22:19:11.449Z,1.53
2019-03-09T22:24:14.265Z,1.30
2019-03-09T22:29:17.031Z,1.17
2019-03-09T22:34:19.786Z,1.57
2019-03-09T22:39:22.557Z,1.40
2019-03-09T22:44:25.307Z,1.43
2019-03-09T22:49:28.019Z,2.43
2019-03-09T22:54:30.752Z,1.97
2019-03-09T22:59:33.469Z,1.70
2019-03-09T23:04:36.190Z,3.03
2019-03-09T23:09:38.989Z,1.50
2019-03-09T23:14:41.849Z,1.77
2019-03-09T23:19:44.648Z,2.60
2019-03-09T23:24:47.377Z,1.77
2019-03-09T23:29:50.118Z,1.43
2019-03-09T23:34:52.840Z,2.63
2019-03-09T23:39:55.542Z,3.27
2019-03-09T23:44:58.270Z,2.13
2019-03-09T23:50:01.006Z,2.40
2019-03-09T23:55:04.139Z,2.27
